Time,TemperatureF,DewpointF,PressureIn,WindDirection,WindDirectionDegrees,WindSpeedMPH,WindSpeedGustMPH,Humidity,HourlyPrecipIn,Conditions,Clouds,dailyrainin,SoftwareType,DateUTC
2013-03-23 00:00:00,65.1,62.5,29.69,SW,225,0.0,0.0,89,0.00,,,0.00,fowsr,2013-03-23 04:00:00,
2013-03-23 00:05:00,65.1,62.5,29.69,SW,225,0.0,0.0,89,0.00,,,0.00,fowsr,2013-03-23 04:05:00,
2013-03-23 00:10:00,65.1,62.5,29.68,SW,225,0.0,0.0,89,0.00,,,0.00,fowsr,2013-03-23 04:10:00,
2013-03-23 00:15:00,65.1,62.5,29.68,SW,225,0.0,0.0,89,0.00,,,0.00,fowsr,2013-03-23 04:15:00,
2013-03-23 00:20:00,64.9,62.6,29.68,SW,225,0.0,0.0,90,0.00,,,0.00,fowsr,2013-03-23 04:20:00,
2013-03-23 00:25:00,64.8,62.4,29.67,SW,225,0.0,0.0,90,0.00,,,0.00,fowsr,2013-03-23 04:25:00,
2013-03-23 00:30:00,64.8,62.4,29.67,SW,225,0.0,0.0,90,0.00,,,0.00,fowsr,2013-03-23 04:30:00,
2013-03-23 00:35:00,64.8,62.4,29.67,SW,225,0.0,0.0,90,0.00,,,0.00,fowsr,2013-03-23 04:35:00,
2013-03-23 00:40:00,64.6,62.3,29.67,SW,225,0.0,0.0,90,0.00,,,0.00,fowsr,2013-03-23 04:40:00,
2013-03-23 00:45:00,64.6,62.3,29.67,SW,225,0.0,0.0,90,0.00,,,0.00,fowsr,2013-03-23 04:45:00,
2013-03-23 00:50:00,64.6,62.3,29.67,SW,225,0.0,0.0,90,0.00,,,0.00,fowsr,2013-03-23 04:50:00,
2013-03-23 00:55:00,64.6,62.3,29.67,SW,225,0.0,0.0,90,0.00,,,0.00,fowsr,2013-03-23 04:55:00,
2013-03-23 01:00:00,64.6,62.3,29.67,SW,225,0.0,0.0,90,0.00,,,0.00,fowsr,2013-03-23 05:00:00,
2013-03-23 01:05:00,64.6,62.3,29.67,SW,225,0.0,0.0,90,0.00,,,0.00,fowsr,2013-03-23 05:05:00,
2013-03-23 01:10:00,64.6,62.3,29.66,SW,225,0.0,0.0,90,0.00,,,0.00,fowsr,2013-03-23 05:10:00,
2013-03-23 01:15:00,64.6,62.3,29.66,SW,225,0.0,0.0,90,0.00,,,0.00,fowsr,2013-03-23 05:15:00,
2013-03-23 01:20:00,64.6,62.3,29.65,SW,225,0.0,0.0,90,0.00,,,0.00,fowsr,2013-03-23 05:20:00,
2013-03-23 01:25:00,64.6,62.3,29.65,SW,225,0.0,0.0,90,0.00,,,0.00,fowsr,2013-03-23 05:25:00,
2013-03-23 01:30:00,64.4,62.1,29.65,SW,225,0.0,0.0,90,0.00,,,0.00,fowsr,2013-03-23 05:30:00,
2013-03-23 01:35:00,64.4,62.1,29.66,SW,225,0.0,0.0,90,0.00,,,0.00,fowsr,2013-03-23 05:35:00,
2013-03-23 01:40:00,64.6,62.3,29.66,SW,225,0.0,0.0,90,0.00,,,0.00,fowsr,2013-03-23 05:40:00,
2013-03-23 01:45:00,64.6,62.3,29.66,SW,225,0.0,0.0,90,0.00,,,0.00,fowsr,2013-03-23 05:45:00,
2013-03-23 01:50:00,64.6,62.3,29.65,SW,225,0.0,0.0,90,0.00,,,0.00,fowsr,2013-03-23 05:50:00,
2013-03-23 01:55:00,64.6,62.3,29.65,SW,225,0.0,0.0,90,0.00,,,0.00,fowsr,2013-03-23 05:55:00,
2013-03-23 02:00:00,64.6,62.5,29.65,SW,225,0.0,0.0,91,0.00,,,0.00,fowsr,2013-03-23 06:00:00,
2013-03-23 02:05:00,64.6,62.5,29.65,SW,225,0.0,0.0,91,0.00,,,0.00,fowsr,2013-03-23 06:05:00,
2013-03-23 02:10:00,64.6,62.5,29.65,SW,225,0.0,0.0,91,0.00,,,0.00,fowsr,2013-03-23 06:10:00,
2013-03-23 02:15:00,64.6,62.5,29.65,SW,225,0.0,0.0,91,0.00,,,0.00,fowsr,2013-03-23 06:15:00,
2013-03-23 02:20:00,64.6,62.5,29.65,SW,225,0.0,0.0,91,0.00,,,0.00,fowsr,2013-03-23 06:20:00,
2013-03-23 02:25:00,64.8,62.7,29.65,SW,225,0.0,0.0,91,0.00,,,0.00,fowsr,2013-03-23 06:25:00,
2013-03-23 02:30:00,64.8,62.7,29.65,SW,225,0.0,0.0,91,0.00,,,0.00,fowsr,2013-03-23 06:30:00,
2013-03-23 02:35:00,64.9,62.9,29.64,SW,225,0.0,0.0,91,0.00,,,0.00,fowsr,2013-03-23 06:35:00,
2013-03-23 02:40:00,64.9,62.9,29.64,SW,225,0.0,0.0,91,0.00,,,0.00,fowsr,2013-03-23 06:40:00,
2013-03-23 02:45:00,64.9,62.9,29.64,SW,225,0.0,0.0,91,0.00,,,0.00,fowsr,2013-03-23 06:45:00,
2013-03-23 02:50:00,64.9,62.9,29.64,SW,225,0.0,0.0,91,0.00,,,0.00,fowsr,2013-03-23 06:50:00,
2013-03-23 02:55:00,64.9,62.9,29.63,SW,225,0.0,0.0,91,0.00,,,0.00,fowsr,2013-03-23 06:55:00,
2013-03-23 03:00:00,64.9,62.6,29.63,SW,225,0.0,0.0,90,0.00,,,0.00,fowsr,2013-03-23 07:00:00,
2013-03-23 03:05:00,64.9,62.6,29.63,SW,225,0.0,0.0,90,0.00,,,0.00,fowsr,2013-03-23 07:05:00,
2013-03-23 03:10:00,64.9,62.9,29.63,SW,225,0.0,0.0,91,0.00,,,0.00,fowsr,2013-03-23 07:10:00,
2013-03-23 03:15:00,64.9,62.9,29.62,SW,225,0.0,0.0,91,0.00,,,0.00,fowsr,2013-03-23 07:15:00,
2013-03-23 03:20:00,64.9,62.9,29.62,SW,225,0.0,0.0,91,0.00,,,0.00,fowsr,2013-03-23 07:20:00,
2013-03-23 03:25:00,64.8,62.4,29.62,SW,225,0.0,0.0,90,0.00,,,0.00,fowsr,2013-03-23 07:25:00,
2013-03-23 03:30:00,64.8,62.4,29.62,SW,225,0.0,0.0,90,0.00,,,0.00,fowsr,2013-03-23 07:30:00,
2013-03-23 03:35:00,64.8,62.4,29.62,SW,225,0.0,0.0,90,0.00,,,0.00,fowsr,2013-03-23 07:35:00,
2013-03-23 03:40:00,64.6,62.3,29.62,SW,225,0.0,0.0,90,0.00,,,0.00,fowsr,2013-03-23 07:40:00,
2013-03-23 03:45:00,64.6,62.3,29.62,SW,225,0.0,0.0,90,0.00,,,0.00,fowsr,2013-03-23 07:45:00,
2013-03-23 03:50:00,64.4,61.8,29.62,SW,225,0.0,0.0,89,0.00,,,0.00,fowsr,2013-03-23 07:50:00,
2013-03-23 03:55:00,64.4,61.8,29.62,SW,225,0.0,0.0,89,0.00,,,0.00,fowsr,2013-03-23 07:55:00,
2013-03-23 04:00:00,64.2,61.7,29.62,SW,225,0.0,0.0,89,0.00,,,0.00,fowsr,2013-03-23 08:00:00,
2013-03-23 04:05:00,64.2,61.7,29.61,SW,225,0.0,0.0,89,0.00,,,0.00,fowsr,2013-03-23 08:05:00,
2013-03-23 04:10:00,64.2,61.9,29.61,SW,225,0.0,0.0,90,0.00,,,0.00,fowsr,2013-03-23 08:10:00,
2013-03-23 04:15:00,64.2,61.9,29.61,SW,225,0.0,0.0,90,0.00,,,0.00,fowsr,2013-03-23 08:15:00,
2013-03-23 04:20:00,64.2,61.9,29.60,SW,225,0.0,0.0,90,0.00,,,0.00,fowsr,2013-03-23 08:20:00,
2013-03-23 04:25:00,64.2,61.9,29.60,SW,225,0.0,0.0,90,0.00,,,0.00,fowsr,2013-03-23 08:25:00,
2013-03-23 04:30:00,64.4,62.3,29.60,SW,225,0.0,0.0,91,0.00,,,0.00,fowsr,2013-03-23 08:30:00,
2013-03-23 04:35:00,64.4,62.3,29.60,SW,225,0.0,0.0,91,0.00,,,0.00,fowsr,2013-03-23 08:35:00,
2013-03-23 04:40:00,64.4,62.3,29.59,SW,225,0.0,0.0,91,0.00,,,0.00,fowsr,2013-03-23 08:40:00,
2013-03-23 04:45:00,64.4,62.3,29.59,SW,225,0.0,0.0,91,0.00,,,0.00,fowsr,2013-03-23 08:45:00,
2013-03-23 04:50:00,64.6,62.7,29.59,SW,225,0.0,0.0,92,0.00,,,0.00,fowsr,2013-03-23 08:50:00,
2013-03-23 04:55:00,64.6,62.7,29.59,SW,225,0.0,0.0,92,0.00,,,0.00,fowsr,2013-03-23 08:55:00,
2013-03-23 05:00:00,64.6,62.7,29.59,SW,225,0.0,0.0,92,0.00,,,0.00,fowsr,2013-03-23 09:00:00,
2013-03-23 05:05:00,64.6,62.7,29.59,SW,225,0.0,0.0,92,0.00,,,0.00,fowsr,2013-03-23 09:05:00,
2013-03-23 05:10:00,64.6,62.7,29.59,SW,225,0.0,0.0,92,0.00,,,0.00,fowsr,2013-03-23 09:10:00,
2013-03-23 05:15:00,64.6,62.7,29.59,SW,225,0.0,0.0,92,0.00,,,0.00,fowsr,2013-03-23 09:15:00,
2013-03-23 05:20:00,64.8,62.9,29.59,SW,225,0.0,0.0,92,0.00,,,0.00,fowsr,2013-03-23 09:20:00,
2013-03-23 05:25:00,64.8,62.9,29.59,SW,225,0.0,0.0,92,0.00,,,0.00,fowsr,2013-03-23 09:25:00,
2013-03-23 05:30:00,64.8,62.9,29.59,SW,225,0.0,0.0,92,0.00,,,0.00,fowsr,2013-03-23 09:30:00,
2013-03-23 05:35:00,64.8,62.9,29.59,SW,225,0.0,0.0,92,0.00,,,0.00,fowsr,2013-03-23 09:35:00,
2013-03-23 05:40:00,64.8,63.2,29.59,SW,225,0.0,0.0,93,0.00,,,0.00,fowsr,2013-03-23 09:40:00,
2013-03-23 05:45:00,64.9,63.3,29.60,SW,225,0.0,0.0,93,0.00,,,0.00,fowsr,2013-03-23 09:45:00,
2013-03-23 05:50:00,64.9,63.3,29.59,SW,225,0.0,0.0,93,0.00,,,0.00,fowsr,2013-03-23 09:50:00,
2013-03-23 05:55:00,64.9,63.3,29.60,SW,225,0.0,0.0,93,0.00,,,0.00,fowsr,2013-03-23 09:55:00,
2013-03-23 06:00:00,64.9,63.3,29.60,SW,225,0.0,0.0,93,0.00,,,0.00,fowsr,2013-03-23 10:00:00,
2013-03-23 06:05:00,64.9,63.3,29.61,SW,225,0.0,0.0,93,0.00,,,0.00,fowsr,2013-03-23 10:05:00,
2013-03-23 06:10:00,64.9,63.3,29.60,SW,225,0.0,0.0,93,0.00,,,0.00,fowsr,2013-03-23 10:10:00,
2013-03-23 06:15:00,64.9,63.3,29.60,SW,225,0.0,0.0,93,0.00,,,0.00,fowsr,2013-03-23 10:15:00,
2013-03-23 06:20:00,64.9,63.3,29.60,SW,225,0.0,0.0,93,0.00,,,0.00,fowsr,2013-03-23 10:20:00,
2013-03-23 06:25:00,65.1,63.5,29.61,SW,225,0.0,0.0,93,0.00,,,0.00,fowsr,2013-03-23 10:25:00,
2013-03-23 06:30:00,65.1,63.5,29.61,SW,225,0.0,0.0,93,0.00,,,0.00,fowsr,2013-03-23 10:30:00,
2013-03-23 06:35:00,65.3,63.9,29.61,SW,225,0.0,0.0,94,0.00,,,0.00,fowsr,2013-03-23 10:35:00,
2013-03-23 06:40:00,65.3,63.9,29.61,SW,225,0.0,0.0,94,0.00,,,0.00,fowsr,2013-03-23 10:40:00,
2013-03-23 06:45:00,65.3,63.9,29.61,SW,225,0.0,0.0,94,0.00,,,0.00,fowsr,2013-03-23 10:45:00,
2013-03-23 06:50:00,65.3,63.9,29.61,SW,225,0.0,0.0,94,0.00,,,0.00,fowsr,2013-03-23 10:50:00,
2013-03-23 06:55:00,65.5,64.1,29.60,SW,225,0.0,0.0,94,0.00,,,0.00,fowsr,2013-03-23 10:55:00,
2013-03-23 07:00:00,65.5,64.1,29.61,SW,225,0.0,0.0,94,0.00,,,0.00,fowsr,2013-03-23 11:00:00,
2013-03-23 07:05:00,65.5,64.1,29.61,SW,225,0.0,0.0,94,0.00,,,0.00,fowsr,2013-03-23 11:05:00,
2013-03-23 07:10:00,65.5,64.1,29.61,SW,225,0.0,0.0,94,0.00,,,0.00,fowsr,2013-03-23 11:10:00,
2013-03-23 07:15:00,65.5,64.1,29.62,SW,225,0.0,0.0,94,0.00,,,0.00,fowsr,2013-03-23 11:15:00,
2013-03-23 07:20:00,65.5,64.1,29.61,SW,225,0.0,0.0,94,0.00,,,0.00,fowsr,2013-03-23 11:20:00,
2013-03-23 07:25:00,65.5,64.3,29.61,SW,225,0.0,0.0,95,0.00,,,0.00,fowsr,2013-03-23 11:25:00,
2013-03-23 07:30:00,65.7,64.5,29.62,SW,225,0.0,0.0,95,0.00,,,0.00,fowsr,2013-03-23 11:30:00,
2013-03-23 07:35:00,65.7,64.5,29.62,SW,225,0.0,0.0,95,0.00,,,0.00,fowsr,2013-03-23 11:35:00,
2013-03-23 07:40:00,65.8,64.7,29.62,SW,225,0.0,0.0,95,0.00,,,0.00,fowsr,2013-03-23 11:40:00,
2013-03-23 07:45:00,65.8,64.7,29.62,SW,225,0.0,0.0,95,0.00,,,0.00,fowsr,2013-03-23 11:45:00,
2013-03-23 07:50:00,66.0,64.9,29.62,SW,225,0.0,0.0,95,0.00,,,0.00,fowsr,2013-03-23 11:50:00,
2013-03-23 07:55:00,66.0,64.9,29.62,SW,225,0.0,0.0,95,0.00,,,0.00,fowsr,2013-03-23 11:55:00,
2013-03-23 08:00:00,66.2,64.8,29.62,SW,225,0.0,0.0,94,0.00,,,0.00,fowsr,2013-03-23 12:00:00,
2013-03-23 08:05:00,66.2,64.8,29.62,SW,225,0.0,0.0,94,0.00,,,0.00,fowsr,2013-03-23 12:05:00,
2013-03-23 08:10:00,66.4,65.2,29.62,SW,225,0.0,0.0,95,0.00,,,0.00,fowsr,2013-03-23 12:10:00,
2013-03-23 08:15:00,66.6,65.4,29.62,SW,225,0.0,0.0,95,0.00,,,0.00,fowsr,2013-03-23 12:15:00,
2013-03-23 08:25:00,66.7,65.6,29.63,SW,225,0.0,0.0,95,0.00,,,0.00,fowsr,2013-03-23 12:25:00,
2013-03-23 08:30:00,66.9,65.8,29.62,SW,225,0.0,0.0,95,0.00,,,0.00,fowsr,2013-03-23 12:30:00,
2013-03-23 08:35:00,67.1,65.9,29.62,SW,225,0.0,0.0,95,0.00,,,0.00,fowsr,2013-03-23 12:35:00,
2013-03-23 08:40:00,67.1,65.9,29.63,SW,225,0.0,0.0,95,0.00,,,0.00,fowsr,2013-03-23 12:40:00,
2013-03-23 08:45:00,67.3,66.1,29.62,SW,225,0.0,0.0,95,0.00,,,0.00,fowsr,2013-03-23 12:45:00,
2013-03-23 08:50:00,67.3,66.1,29.63,SW,225,0.0,0.0,95,0.00,,,0.00,fowsr,2013-03-23 12:50:00,
2013-03-23 08:55:00,67.5,66.3,29.62,SW,225,0.0,0.0,95,0.00,,,0.00,fowsr,2013-03-23 12:55:00,
2013-03-23 09:00:00,67.6,66.7,29.62,SW,225,0.0,0.0,96,0.00,,,0.00,fowsr,2013-03-23 13:00:00,
2013-03-23 09:05:00,68.0,66.8,29.62,SW,225,0.0,0.0,95,0.00,,,0.00,fowsr,2013-03-23 13:05:00,
2013-03-23 09:10:00,68.2,67.0,29.62,SW,225,0.0,0.0,95,0.00,,,0.00,fowsr,2013-03-23 13:10:00,
2013-03-23 09:15:00,68.5,67.4,29.62,SW,225,0.0,0.0,95,0.00,,,0.00,fowsr,2013-03-23 13:15:00,
2013-03-23 09:20:00,69.3,68.1,29.62,SW,225,0.0,0.0,95,0.00,,,0.00,fowsr,2013-03-23 13:20:00,
2013-03-23 09:25:00,69.8,68.4,29.62,SW,225,0.0,0.0,94,0.00,,,0.00,fowsr,2013-03-23 13:25:00,
2013-03-23 09:30:00,70.3,68.7,29.62,SW,225,0.0,0.0,93,0.00,,,0.00,fowsr,2013-03-23 13:30:00,
2013-03-23 09:35:00,71.1,69.4,29.62,SW,225,0.0,0.0,93,0.00,,,0.00,fowsr,2013-03-23 13:35:00,
2013-03-23 09:40:00,72.3,70.4,29.62,SW,225,0.0,0.0,92,0.00,,,0.00,fowsr,2013-03-23 13:40:00,
2013-03-23 09:45:00,73.4,71.2,29.62,SW,225,0.0,0.0,91,0.00,,,0.00,fowsr,2013-03-23 13:45:00,
2013-03-23 09:50:00,74.1,71.4,29.62,SW,225,0.0,0.0,89,0.00,,,0.00,fowsr,2013-03-23 13:50:00,
2013-03-23 09:55:00,74.5,71.5,29.62,SW,225,0.0,0.0,88,0.00,,,0.00,fowsr,2013-03-23 13:55:00,
2013-03-23 10:00:00,74.7,71.4,29.61,SW,225,0.0,0.0,87,0.00,,,0.00,fowsr,2013-03-23 14:00:00,
2013-03-23 10:05:00,75.0,71.5,29.60,SW,225,0.0,0.0,86,0.00,,,0.00,fowsr,2013-03-23 14:05:00,
2013-03-23 10:10:00,75.7,71.9,29.60,SW,225,0.0,0.0,85,0.00,,,0.00,fowsr,2013-03-23 14:10:00,
2013-03-23 10:15:00,76.8,73.0,29.60,SW,225,0.0,0.0,85,0.00,,,0.00,fowsr,2013-03-23 14:15:00,
2013-03-23 10:20:00,77.7,73.0,29.60,SW,225,0.0,0.0,82,0.00,,,0.00,fowsr,2013-03-23 14:20:00,
2013-03-23 10:25:00,78.1,73.0,29.61,SW,225,0.0,0.0,81,0.00,,,0.00,fowsr,2013-03-23 14:25:00,
2013-03-23 10:30:00,78.6,73.3,29.60,SW,225,0.0,0.0,80,0.00,,,0.00,fowsr,2013-03-23 14:30:00,
2013-03-23 10:35:00,79.0,73.0,29.60,SW,225,0.0,0.0,78,0.00,,,0.00,fowsr,2013-03-23 14:35:00,
2013-03-23 10:40:00,79.7,73.7,29.60,SW,225,0.0,0.0,78,0.00,,,0.00,fowsr,2013-03-23 14:40:00,
2013-03-23 10:45:00,80.4,74.1,29.60,SW,225,0.0,0.0,77,0.00,,,0.00,fowsr,2013-03-23 14:45:00,
2013-03-23 10:50:00,81.1,74.2,29.60,SW,225,0.0,0.0,75,0.00,,,0.00,fowsr,2013-03-23 14:50:00,
2013-03-23 10:55:00,81.9,74.5,29.59,West,270,0.0,0.0,74,0.00,,,0.00,fowsr,2013-03-23 14:55:00,
2013-03-23 11:00:00,82.6,74.9,29.60,West,270,0.0,0.0,73,0.00,,,0.00,fowsr,2013-03-23 15:00:00,
2013-03-23 11:05:00,83.3,75.3,29.60,SW,225,0.0,0.0,72,0.00,,,0.00,fowsr,2013-03-23 15:05:00,
2013-03-23 11:15:00,83.7,74.9,29.59,SW,225,0.0,0.0,70,0.00,,,0.00,fowsr,2013-03-23 15:15:00,
2013-03-23 11:20:00,83.7,74.9,29.59,SW,225,0.0,0.0,70,0.00,,,0.00,fowsr,2013-03-23 15:20:00,
2013-03-23 11:25:00,83.8,75.1,29.59,SW,225,0.0,0.0,70,0.00,,,0.00,fowsr,2013-03-23 15:25:00,
2013-03-23 11:30:00,84.2,75.1,29.58,SW,225,0.0,0.0,69,0.00,,,0.00,fowsr,2013-03-23 15:30:00,
2013-03-23 11:35:00,84.7,75.3,29.59,SW,225,0.0,0.0,68,0.00,,,0.00,fowsr,2013-03-23 15:35:00,
2013-03-23 11:40:00,85.1,75.6,29.59,SW,225,0.0,0.0,68,0.00,,,0.00,fowsr,2013-03-23 15:40:00,
2013-03-23 11:45:00,85.3,75.4,29.59,SW,225,0.0,0.0,67,0.00,,,0.00,fowsr,2013-03-23 15:45:00,
2013-03-23 11:50:00,85.1,75.2,29.59,SW,225,0.0,0.0,67,0.00,,,0.00,fowsr,2013-03-23 15:50:00,
2013-03-23 11:55:00,84.7,74.9,29.59,SW,225,0.0,0.0,67,0.00,,,0.00,fowsr,2013-03-23 15:55:00,
2013-03-23 12:00:00,84.6,74.7,29.59,SW,225,0.0,0.0,67,0.00,,,0.00,fowsr,2013-03-23 16:00:00,
2013-03-23 12:05:00,84.6,75.1,29.58,SW,225,0.0,0.0,68,0.00,,,0.00,fowsr,2013-03-23 16:05:00,
2013-03-23 12:10:00,84.6,75.1,29.59,SW,225,0.0,0.0,68,0.00,,,0.00,fowsr,2013-03-23 16:10:00,
2013-03-23 12:15:00,84.7,74.9,29.58,SW,225,0.0,0.0,67,0.00,,,0.00,fowsr,2013-03-23 16:15:00,
2013-03-23 12:20:00,84.6,75.1,29.58,SW,225,0.0,0.0,68,0.00,,,0.00,fowsr,2013-03-23 16:20:00,
2013-03-23 12:25:00,84.7,75.3,29.58,SW,225,0.0,0.0,68,0.00,,,0.00,fowsr,2013-03-23 16:25:00,
2013-03-23 12:30:00,84.7,75.3,29.58,SW,225,0.0,0.0,68,0.00,,,0.00,fowsr,2013-03-23 16:30:00,
2013-03-23 12:35:00,85.1,75.6,29.57,SW,225,0.0,0.0,68,0.00,,,0.00,fowsr,2013-03-23 16:35:00,
2013-03-23 12:40:00,85.3,75.4,29.58,SW,225,0.0,0.0,67,0.00,,,0.00,fowsr,2013-03-23 16:40:00,
2013-03-23 12:45:00,85.3,75.1,29.58,SW,225,0.0,0.0,66,0.00,,,0.00,fowsr,2013-03-23 16:45:00,
2013-03-23 12:50:00,85.3,75.1,29.58,SW,225,0.0,0.0,66,0.00,,,0.00,fowsr,2013-03-23 16:50:00,
2013-03-23 12:55:00,85.3,75.1,29.57,SW,225,0.0,0.0,66,0.00,,,0.00,fowsr,2013-03-23 16:55:00,
2013-03-23 13:00:00,85.3,75.1,29.57,SW,225,0.0,0.0,66,0.00,,,0.00,fowsr,2013-03-23 17:00:00,
2013-03-23 13:05:00,85.3,75.1,29.57,SW,225,0.0,0.0,66,0.00,,,0.00,fowsr,2013-03-23 17:05:00,
2013-03-23 13:10:00,85.5,75.2,29.57,SW,225,0.0,0.0,66,0.00,,,0.00,fowsr,2013-03-23 17:10:00,
2013-03-23 13:15:00,85.8,75.2,29.57,SW,225,0.0,0.0,65,0.00,,,0.00,fowsr,2013-03-23 17:15:00,
2013-03-23 13:20:00,85.8,75.2,29.57,SW,225,0.0,0.0,65,0.00,,,0.00,fowsr,2013-03-23 17:20:00,
2013-03-23 13:25:00,85.6,74.7,29.57,SW,225,0.0,0.0,64,0.00,,,0.00,fowsr,2013-03-23 17:25:00,
2013-03-23 13:30:00,85.6,75.0,29.56,SW,225,0.0,0.0,65,0.00,,,0.00,fowsr,2013-03-23 17:30:00,
2013-03-23 13:35:00,86.0,74.6,29.56,SW,225,0.0,0.0,63,0.00,,,0.00,fowsr,2013-03-23 17:35:00,
2013-03-23 13:40:00,86.0,74.6,29.55,SW,225,0.0,0.0,63,0.00,,,0.00,fowsr,2013-03-23 17:40:00,
2013-03-23 13:45:00,86.2,74.8,29.55,SW,225,0.0,0.0,63,0.00,,,0.00,fowsr,2013-03-23 17:45:00,
2013-03-23 13:50:00,86.0,74.6,29.55,SW,225,0.0,0.0,63,0.00,,,0.00,fowsr,2013-03-23 17:50:00,
2013-03-23 13:55:00,86.4,75.0,29.54,SW,225,0.0,0.0,63,0.00,,,0.00,fowsr,2013-03-23 17:55:00,
2013-03-23 14:00:00,87.1,75.2,29.54,SW,225,0.0,0.0,62,0.00,,,0.00,fowsr,2013-03-23 18:00:00,
2013-03-23 14:05:00,87.6,75.7,29.54,SW,225,0.0,0.0,62,0.00,,,0.00,fowsr,2013-03-23 18:05:00,
2013-03-23 14:10:00,88.0,74.9,29.53,SW,225,0.0,0.0,59,0.00,,,0.00,fowsr,2013-03-23 18:10:00,
2013-03-23 14:15:00,88.3,75.2,29.53,SW,225,0.0,0.0,59,0.00,,,0.00,fowsr,2013-03-23 18:15:00,
2013-03-23 14:20:00,88.7,75.1,29.53,SW,225,0.0,0.0,58,0.00,,,0.00,fowsr,2013-03-23 18:20:00,
2013-03-23 14:25:00,88.7,74.7,29.53,SW,225,0.0,0.0,57,0.00,,,0.00,fowsr,2013-03-23 18:25:00,
2013-03-23 14:30:00,88.7,74.7,29.53,SW,225,0.0,0.7,57,0.00,,,0.00,fowsr,2013-03-23 18:30:00,
2013-03-23 14:35:00,88.7,74.7,29.52,South,180,0.0,0.7,57,0.00,,,0.00,fowsr,2013-03-23 18:35:00,
2013-03-23 14:40:00,88.7,74.3,29.52,SW,225,0.0,0.0,56,0.00,,,0.00,fowsr,2013-03-23 18:40:00,
2013-03-23 14:45:00,88.5,74.2,29.52,SW,225,0.0,0.0,56,0.00,,,0.00,fowsr,2013-03-23 18:45:00,
2013-03-23 14:50:00,88.3,74.4,29.51,SW,225,0.0,0.0,57,0.00,,,0.00,fowsr,2013-03-23 18:50:00,
2013-03-23 14:55:00,88.2,73.8,29.51,SW,225,0.0,0.0,56,0.00,,,0.00,fowsr,2013-03-23 18:55:00,
2013-03-23 15:00:00,87.8,73.5,29.50,SW,225,0.0,0.0,56,0.00,,,0.00,fowsr,2013-03-23 19:00:00,
2013-03-23 15:05:00,88.0,74.1,29.50,West,270,0.0,0.0,57,0.00,,,0.00,fowsr,2013-03-23 19:05:00,
2013-03-23 15:10:00,88.3,74.0,29.50,SW,225,0.0,0.0,56,0.00,,,0.00,fowsr,2013-03-23 19:10:00,
2013-03-23 15:15:00,88.5,74.2,29.50,SW,225,0.0,0.7,56,0.00,,,0.00,fowsr,2013-03-23 19:15:00,
2013-03-23 15:20:00,88.7,73.9,29.50,SW,225,0.0,0.0,55,0.00,,,0.00,fowsr,2013-03-23 19:20:00,
2013-03-23 15:25:00,88.5,73.7,29.49,SW,225,0.0,0.0,55,0.00,,,0.00,fowsr,2013-03-23 19:25:00,
2013-03-23 15:30:00,88.7,73.9,29.49,SW,225,0.0,0.0,55,0.00,,,0.00,fowsr,2013-03-23 19:30:00,
2013-03-23 15:35:00,88.7,73.9,29.49,SW,225,0.0,0.7,55,0.00,,,0.00,fowsr,2013-03-23 19:35:00,
2013-03-23 15:40:00,88.3,73.6,29.50,SW,225,0.0,0.0,55,0.00,,,0.00,fowsr,2013-03-23 19:40:00,
2013-03-23 15:45:00,88.0,74.1,29.49,SW,225,0.0,0.0,57,0.00,,,0.00,fowsr,2013-03-23 19:45:00,
2013-03-23 15:50:00,87.3,74.6,29.49,SW,225,0.0,0.0,60,0.00,,,0.00,fowsr,2013-03-23 19:50:00,
2013-03-23 15:55:00,86.7,74.5,29.48,SW,225,0.0,0.0,61,0.00,,,0.00,fowsr,2013-03-23 19:55:00,
2013-03-23 16:00:00,86.5,74.7,29.48,SW,225,0.0,0.7,62,0.00,,,0.00,fowsr,2013-03-23 20:00:00,
2013-03-23 16:05:00,86.9,75.1,29.48,SW,225,0.0,0.0,62,0.00,,,0.00,fowsr,2013-03-23 20:05:00,
2013-03-23 16:10:00,87.3,75.0,29.47,SW,225,0.0,0.0,61,0.00,,,0.00,fowsr,2013-03-23 20:10:00,
2013-03-23 16:15:00,87.4,74.8,29.47,SW,225,0.0,0.0,60,0.00,,,0.00,fowsr,2013-03-23 20:15:00,
2013-03-23 16:20:00,87.3,74.2,29.47,SW,225,0.0,0.0,59,0.00,,,0.00,fowsr,2013-03-23 20:20:00,
2013-03-23 16:25:00,87.1,74.1,29.47,West,270,0.0,0.7,59,0.00,,,0.00,fowsr,2013-03-23 20:25:00,
2013-03-23 16:30:00,86.7,73.3,29.47,SW,225,0.0,0.0,58,0.00,,,0.00,fowsr,2013-03-23 20:30:00,
2013-03-23 16:35:00,86.9,73.9,29.47,SW,225,0.0,0.0,59,0.00,,,0.00,fowsr,2013-03-23 20:35:00,
2013-03-23 16:40:00,87.1,73.7,29.47,SW,225,0.0,0.0,58,0.00,,,0.00,fowsr,2013-03-23 20:40:00,
2013-03-23 16:45:00,87.1,73.3,29.46,SW,225,0.0,0.0,57,0.00,,,0.00,fowsr,2013-03-23 20:45:00,
2013-03-23 16:50:00,87.3,73.0,29.47,SW,225,0.0,0.0,56,0.00,,,0.00,fowsr,2013-03-23 20:50:00,
2013-03-23 16:55:00,87.3,72.6,29.46,SW,225,0.0,0.0,55,0.00,,,0.00,fowsr,2013-03-23 20:55:00,
2013-03-23 17:00:00,87.3,72.6,29.46,SW,225,0.0,0.0,55,0.00,,,0.00,fowsr,2013-03-23 21:00:00,
2013-03-23 17:05:00,87.3,72.1,29.46,SW,225,0.0,0.0,54,0.00,,,0.00,fowsr,2013-03-23 21:05:00,
2013-03-23 17:10:00,87.1,72.0,29.46,SW,225,0.0,0.0,54,0.00,,,0.00,fowsr,2013-03-23 21:10:00,
2013-03-23 17:15:00,86.9,71.8,29.46,SW,225,0.0,0.0,54,0.00,,,0.00,fowsr,2013-03-23 21:15:00,
2013-03-23 17:20:00,86.7,71.2,29.47,SW,225,0.0,0.0,53,0.00,,,0.00,fowsr,2013-03-23 21:20:00,
2013-03-23 17:25:00,86.5,71.5,29.47,SW,225,0.0,0.0,54,0.00,,,0.00,fowsr,2013-03-23 21:25:00,
2013-03-23 17:30:00,86.2,70.7,29.47,SW,225,0.0,0.0,53,0.00,,,0.00,fowsr,2013-03-23 21:30:00,
2013-03-23 17:35:00,86.0,70.6,29.47,SW,225,0.0,0.0,53,0.00,,,0.00,fowsr,2013-03-23 21:35:00,
2013-03-23 17:40:00,85.8,70.8,29.47,SW,225,0.0,0.0,54,0.00,,,0.00,fowsr,2013-03-23 21:40:00,
2013-03-23 17:45:00,85.6,70.7,29.47,SW,225,0.0,0.0,54,0.00,,,0.00,fowsr,2013-03-23 21:45:00,
2013-03-23 17:50:00,85.3,70.8,29.47,SW,225,0.0,0.0,55,0.00,,,0.00,fowsr,2013-03-23 21:50:00,
2013-03-23 17:55:00,85.3,70.8,29.48,SW,225,0.0,0.0,55,0.00,,,0.00,fowsr,2013-03-23 21:55:00,
2013-03-23 18:00:00,84.9,70.4,29.48,SW,225,0.0,0.0,55,0.00,,,0.00,fowsr,2013-03-23 22:00:00,
2013-03-23 18:05:00,84.9,70.4,29.47,SW,225,0.0,0.0,55,0.00,,,0.00,fowsr,2013-03-23 22:05:00,
2013-03-23 18:10:00,84.9,70.4,29.47,SW,225,0.0,0.0,55,0.00,,,0.00,fowsr,2013-03-23 22:10:00,
2013-03-23 18:15:00,84.9,70.0,29.48,SW,225,0.0,0.0,54,0.00,,,0.00,fowsr,2013-03-23 22:15:00,
2013-03-23 18:20:00,84.6,70.1,29.48,SW,225,0.0,0.0,55,0.00,,,0.00,fowsr,2013-03-23 22:20:00,
2013-03-23 18:25:00,84.2,69.8,29.48,West,270,0.0,0.0,55,0.00,,,0.00,fowsr,2013-03-23 22:25:00,
2013-03-23 18:30:00,84.0,70.0,29.49,SW,225,0.0,0.7,56,0.00,,,0.00,fowsr,2013-03-23 22:30:00,
2013-03-23 18:35:00,83.7,69.7,29.49,SW,225,0.0,0.0,56,0.00,,,0.00,fowsr,2013-03-23 22:35:00,
2013-03-23 18:40:00,83.3,69.8,29.49,SW,225,0.0,0.0,57,0.00,,,0.00,fowsr,2013-03-23 22:40:00,
2013-03-23 18:50:00,82.9,69.5,29.49,SW,225,0.0,0.0,57,0.00,,,0.00,fowsr,2013-03-23 22:50:00,
2013-03-23 18:55:00,82.6,69.1,29.50,SW,225,0.0,0.0,57,0.00,,,0.00,fowsr,2013-03-23 22:55:00,
2013-03-23 19:00:00,82.2,69.6,29.50,SW,225,0.0,0.0,59,0.00,,,0.00,fowsr,2013-03-23 23:00:00,
2013-03-23 19:05:00,82.0,69.8,29.50,SW,225,0.0,0.0,60,0.00,,,0.00,fowsr,2013-03-23 23:05:00,
2013-03-23 19:15:00,81.7,69.9,29.50,West,270,0.0,0.0,61,0.00,,,0.00,fowsr,2013-03-23 23:15:00,
2013-03-23 19:20:00,81.5,69.7,29.50,West,270,0.0,0.0,61,0.00,,,0.00,fowsr,2013-03-23 23:20:00,
2013-03-23 19:25:00,81.3,69.5,29.51,West,270,0.0,0.0,61,0.00,,,0.00,fowsr,2013-03-23 23:25:00,
2013-03-23 19:30:00,81.1,69.7,29.50,West,270,0.0,0.0,62,0.00,,,0.00,fowsr,2013-03-23 23:30:00,
2013-03-23 19:35:00,81.0,69.6,29.50,West,270,0.0,0.0,62,0.00,,,0.00,fowsr,2013-03-23 23:35:00,
2013-03-23 19:40:00,80.6,69.2,29.50,West,270,0.0,0.0,62,0.00,,,0.00,fowsr,2013-03-23 23:40:00,
2013-03-23 19:45:00,80.4,69.4,29.51,West,270,0.0,0.0,63,0.00,,,0.00,fowsr,2013-03-23 23:45:00,
2013-03-23 19:50:00,80.2,69.6,29.51,West,270,0.0,0.0,64,0.00,,,0.00,fowsr,2013-03-23 23:50:00,
2013-03-23 19:55:00,79.9,69.3,29.50,West,270,0.0,0.0,64,0.00,,,0.00,fowsr,2013-03-23 23:55:00,
2013-03-23 20:00:00,79.7,69.1,29.51,West,270,0.0,0.0,64,0.00,,,0.00,fowsr,2013-03-24 00:00:00,
2013-03-23 20:05:00,79.5,69.3,29.51,West,270,0.0,0.0,65,0.00,,,0.00,fowsr,2013-03-24 00:05:00,
2013-03-23 20:10:00,79.3,69.1,29.51,West,270,0.0,0.0,65,0.00,,,0.00,fowsr,2013-03-24 00:10:00,
2013-03-23 20:15:00,79.0,68.8,29.51,West,270,0.0,0.0,65,0.00,,,0.00,fowsr,2013-03-24 00:15:00,
2013-03-23 20:20:00,78.8,69.0,29.52,West,270,0.0,0.0,66,0.00,,,0.00,fowsr,2013-03-24 00:20:00,
2013-03-23 20:25:00,78.8,69.0,29.52,West,270,0.0,0.0,66,0.00,,,0.00,fowsr,2013-03-24 00:25:00,
2013-03-23 20:30:00,78.6,69.2,29.52,West,270,0.0,0.0,67,0.00,,,0.00,fowsr,2013-03-24 00:30:00,
2013-03-23 20:35:00,78.4,69.0,29.53,West,270,0.0,0.0,67,0.00,,,0.00,fowsr,2013-03-24 00:35:00,
2013-03-23 20:40:00,78.1,69.0,29.53,West,270,0.0,0.0,68,0.00,,,0.00,fowsr,2013-03-24 00:40:00,
2013-03-23 20:45:00,77.9,68.8,29.53,West,270,0.0,0.0,68,0.00,,,0.00,fowsr,2013-03-24 00:45:00,
2013-03-23 20:50:00,77.7,68.6,29.53,West,270,0.0,0.0,68,0.00,,,0.00,fowsr,2013-03-24 00:50:00,
2013-03-23 20:55:00,77.5,68.5,29.53,West,270,0.0,0.0,68,0.00,,,0.00,fowsr,2013-03-24 00:55:00,
2013-03-23 21:00:00,77.4,68.6,29.54,West,270,0.0,0.0,69,0.00,,,0.00,fowsr,2013-03-24 01:00:00,
2013-03-23 21:05:00,77.2,68.5,29.54,West,270,0.0,0.0,69,0.00,,,0.00,fowsr,2013-03-24 01:05:00,
2013-03-23 21:10:00,77.0,68.6,29.54,West,270,0.0,0.0,70,0.00,,,0.00,fowsr,2013-03-24 01:10:00,
2013-03-23 21:15:00,77.0,69.3,29.55,West,270,0.0,0.0,72,0.00,,,0.00,fowsr,2013-03-24 01:15:00,
2013-03-23 21:20:00,77.0,69.6,29.55,West,270,0.0,0.0,73,0.00,,,0.00,fowsr,2013-03-24 01:20:00,
2013-03-23 21:25:00,77.0,69.6,29.55,West,270,0.0,0.0,73,0.00,,,0.00,fowsr,2013-03-24 01:25:00,
2013-03-23 21:30:00,77.0,69.6,29.55,West,270,0.0,0.0,73,0.00,,,0.00,fowsr,2013-03-24 01:30:00,
2013-03-23 21:35:00,77.0,69.6,29.55,West,270,0.0,0.0,73,0.00,,,0.00,fowsr,2013-03-24 01:35:00,
2013-03-23 21:40:00,77.0,69.9,29.56,West,270,0.0,0.0,74,0.00,,,0.00,fowsr,2013-03-24 01:40:00,
2013-03-23 21:45:00,77.0,69.9,29.56,West,270,0.0,0.0,74,0.00,,,0.00,fowsr,2013-03-24 01:45:00,
2013-03-23 21:50:00,76.8,70.0,29.56,West,270,0.0,0.0,75,0.00,,,0.00,fowsr,2013-03-24 01:50:00,
2013-03-23 21:55:00,76.8,70.0,29.56,West,270,0.0,0.0,75,0.00,,,0.00,fowsr,2013-03-24 01:55:00,
2013-03-23 22:00:00,76.6,69.9,29.56,West,270,0.0,0.0,75,0.00,,,0.00,fowsr,2013-03-24 02:00:00,
2013-03-23 22:05:00,76.6,69.9,29.57,West,270,0.0,0.0,75,0.00,,,0.00,fowsr,2013-03-24 02:05:00,
2013-03-23 22:10:00,76.5,69.7,29.57,West,270,0.0,0.0,75,0.00,,,0.00,fowsr,2013-03-24 02:10:00,
2013-03-23 22:15:00,76.5,69.7,29.57,West,270,0.0,0.0,75,0.00,,,0.00,fowsr,2013-03-24 02:15:00,
2013-03-23 22:20:00,76.3,69.8,29.57,West,270,0.0,0.0,76,0.00,,,0.00,fowsr,2013-03-24 02:20:00,
2013-03-23 22:25:00,76.1,69.3,29.57,West,270,0.0,0.0,75,0.00,,,0.00,fowsr,2013-03-24 02:25:00,
2013-03-23 22:30:00,75.6,68.5,29.57,SW,225,0.0,0.0,74,0.00,,,0.00,fowsr,2013-03-24 02:30:00,
2013-03-23 22:35:00,75.0,68.3,29.57,SW,225,0.0,0.0,75,0.00,,,0.00,fowsr,2013-03-24 02:35:00,
2013-03-23 22:40:00,74.5,67.8,29.58,SW,225,0.0,0.0,75,0.00,,,0.00,fowsr,2013-03-24 02:40:00,
2013-03-23 22:45:00,73.9,67.3,29.57,SW,225,0.0,0.7,75,0.00,,,0.00,fowsr,2013-03-24 02:45:00,
2013-03-23 22:50:00,73.6,67.2,29.58,SW,225,0.0,0.0,76,0.00,,,0.00,fowsr,2013-03-24 02:50:00,
2013-03-23 22:55:00,73.2,66.6,29.58,SW,225,0.0,0.7,75,0.00,,,0.00,fowsr,2013-03-24 02:55:00,
2013-03-23 23:00:00,73.0,66.7,29.58,SW,225,0.0,0.0,76,0.00,,,0.00,fowsr,2013-03-24 03:00:00,
2013-03-23 23:05:00,73.0,66.7,29.58,SW,225,0.0,0.0,76,0.00,,,0.00,fowsr,2013-03-24 03:05:00,
2013-03-23 23:10:00,72.7,66.7,29.58,WSW,247,0.0,0.0,77,0.00,,,0.00,fowsr,2013-03-24 03:10:00,
2013-03-23 23:15:00,72.3,66.3,29.58,WSW,247,0.0,0.0,77,0.00,,,0.00,fowsr,2013-03-24 03:15:00,
2013-03-23 23:20:00,72.1,66.4,29.57,WSW,247,0.0,0.0,78,0.00,,,0.00,fowsr,2013-03-24 03:20:00,
2013-03-23 23:25:00,72.0,66.3,29.57,SW,225,0.0,0.0,78,0.00,,,0.00,fowsr,2013-03-24 03:25:00,
2013-03-23 23:30:00,71.8,66.4,29.57,SW,225,0.0,0.0,79,0.00,,,0.00,fowsr,2013-03-24 03:30:00,
2013-03-23 23:35:00,71.6,66.2,29.57,West,270,0.0,0.7,79,0.00,,,0.00,fowsr,2013-03-24 03:35:00,
2013-03-23 23:40:00,71.4,66.6,29.57,West,270,0.0,0.0,81,0.00,,,0.00,fowsr,2013-03-24 03:40:00,
2013-03-23 23:45:00,71.2,66.4,29.57,West,270,0.0,0.0,81,0.00,,,0.00,fowsr,2013-03-24 03:45:00,
2013-03-23 23:50:00,71.1,66.5,29.56,West,270,0.0,0.0,82,0.00,,,0.00,fowsr,2013-03-24 03:50:00,
2013-03-23 23:55:00,70.9,66.3,29.56,South,180,0.0,0.0,82,0.00,,,0.00,fowsr,2013-03-24 03:55:00,